createdAt,value
2023-06-19T00:27:26.374Z,23.4
2023-06-19T00:37:29.045Z,23.4
2023-06-19T00:47:31.492Z,23.4
2023-06-19T00:57:32.966Z,23.2
2023-06-19T01:07:34.892Z,23.2
2023-06-19T01:17:36.463Z,23
2023-06-19T01:27:38.599Z,22.9
2023-06-19T01:37:41.288Z,22.7
2023-06-19T01:47:42.984Z,22.6
2023-06-19T01:57:44.588Z,22.4
2023-06-19T02:07:46.451Z,22.4
2023-06-19T02:17:48.590Z,22.3
2023-06-19T02:37:52.677Z,21.9
2023-06-19T03:28:04.091Z,22.3
2023-06-19T04:18:15.559Z,22.1
2023-06-19T04:28:17.450Z,21.9
2023-06-19T04:38:19.228Z,21.9
2023-06-19T04:58:23.049Z,21.5
2023-06-19T05:08:25.543Z,21.9
2023-06-19T05:28:30.107Z,21.4
2023-06-19T05:38:32.319Z,21.4
2023-06-19T05:48:34.173Z,21.1
2023-06-19T05:58:36.271Z,21.2
2023-06-19T06:08:38.358Z,21.3
2023-06-19T06:18:40.453Z,21.6
2023-06-19T06:28:42.907Z,21.3
2023-06-19T06:38:45.321Z,21
2023-06-19T06:48:47.871Z,20.8
2023-06-19T06:58:49.572Z,21.4
2023-06-19T07:08:51.979Z,21.5
2023-06-19T07:18:54.137Z,21.4
2023-06-19T07:28:56.286Z,21.2
2023-06-19T07:38:58.896Z,21.6
2023-06-19T07:49:00.933Z,21.6
2023-06-19T07:59:05.181Z,21.7
2023-06-19T08:09:04.990Z,21.3
2023-06-19T08:19:07.130Z,21.4
2023-06-19T08:39:11.264Z,21.5
2023-06-19T08:49:13.602Z,21.9
2023-06-19T08:59:15.938Z,21.6
2023-06-19T09:09:18.107Z,22.3
2023-06-19T09:19:19.829Z,22
2023-06-19T09:29:22.189Z,22.6
2023-06-19T09:39:24.035Z,22.6
2023-06-19T09:49:26.921Z,23
2023-06-19T09:59:28.851Z,22.8
2023-06-19T10:09:31.070Z,23.3
2023-06-19T10:19:33.370Z,23.1
2023-06-19T13:00:18.655Z,26.4
2023-06-19T13:10:20.630Z,25.9
2023-06-19T13:20:22.995Z,26
2023-06-19T13:40:27.008Z,26.1
2023-06-19T13:50:29.047Z,26.1
2023-06-19T14:00:31.454Z,26.8
2023-06-19T14:10:33.285Z,26.7
2023-06-19T14:20:35.565Z,27.1
2023-06-19T14:30:37.478Z,27.4
2023-06-19T14:40:39.640Z,27.4
2023-06-19T14:50:42.033Z,28.4
2023-06-19T15:10:46.358Z,27.5
2023-06-19T15:20:48.076Z,28.1
2023-06-19T15:30:50.150Z,27.8
2023-06-19T15:40:52.531Z,27.3
2023-06-19T15:50:54.522Z,28.3
2023-06-19T16:00:56.408Z,28.5
2023-06-19T16:10:58.656Z,28.5
2023-06-19T16:31:02.788Z,28.9
2023-06-19T16:41:04.457Z,27.8
2023-06-19T16:51:06.444Z,27.5
2023-06-19T17:01:10.614Z,27.4
2023-06-19T17:11:11.030Z,27.3
2023-06-19T17:21:13.700Z,27.2
2023-06-19T17:41:17.964Z,27.1
2023-06-19T17:51:19.701Z,27.1
2023-06-19T18:01:21.735Z,27
2023-06-19T18:11:24.155Z,27
2023-06-19T18:21:26.437Z,26.8
2023-06-19T18:31:28.759Z,26.4
2023-06-19T18:51:32.718Z,26.2
2023-06-19T19:11:36.885Z,26
2023-06-19T19:21:39.473Z,25.8
2023-06-19T19:51:45.202Z,25.1
2023-06-19T20:11:49.664Z,24.5
2023-06-19T20:31:53.716Z,24
2023-06-19T20:41:55.589Z,23.7
2023-06-19T20:51:57.234Z,23.3
2023-06-19T21:12:01.550Z,23
2023-06-19T21:42:08.689Z,22.3
2023-06-19T21:52:08.872Z,22.2
2023-06-19T22:02:11.389Z,22
2023-06-19T22:12:13.578Z,21.8
2023-06-19T22:32:16.801Z,21.6
2023-06-19T22:42:19.025Z,21.4
2023-06-19T22:52:21.585Z,21.5
2023-06-19T23:32:30.372Z,21
2023-06-19T23:42:32.443Z,21
2023-06-19T23:52:43.352Z,20.8
